sensor_id;sensor_type;location;lat;lon;timestamp;pressure;altitude;pressure_sealevel;temperature;humidity
64243;BME280;50573;51.512;5.386;2023-01-28T00:02:48;102652.59;;;4.16;83.62
64243;BME280;50573;51.512;5.386;2023-01-28T00:12:53;102658.03;;;4.04;83.44
64243;BME280;50573;51.512;5.386;2023-01-28T00:22:55;102660.31;;;4.02;84.25
64243;BME280;50573;51.512;5.386;2023-01-28T00:33:00;102666.09;;;4.16;83.50
64243;BME280;50573;51.512;5.386;2023-01-28T00:43:03;102684.81;;;3.85;83.45
64243;BME280;50573;51.512;5.386;2023-01-28T00:53:07;102676.31;;;3.71;83.02
64243;BME280;50573;51.512;5.386;2023-01-28T01:03:10;102682.16;;;3.61;84.33
64243;BME280;50573;51.512;5.386;2023-01-28T01:13:15;102678.78;;;3.64;84.19
64243;BME280;50573;51.512;5.386;2023-01-28T01:23:18;102686.00;;;3.60;83.92
64243;BME280;50573;51.512;5.386;2023-01-28T01:33:22;102668.81;;;3.52;83.27
64243;BME280;50573;51.512;5.386;2023-01-28T01:43:45;102670.28;;;3.50;82.79
64243;BME280;50573;51.512;5.386;2023-01-28T01:53:52;102675.78;;;3.53;83.36
64243;BME280;50573;51.512;5.386;2023-01-28T02:04:01;102694.41;;;3.46;83.35
64243;BME280;50573;51.512;5.386;2023-01-28T02:14:07;102691.03;;;3.49;82.30
64243;BME280;50573;51.512;5.386;2023-01-28T02:24:21;102698.34;;;3.37;82.73
64243;BME280;50573;51.512;5.386;2023-01-28T02:34:29;102695.31;;;3.38;82.73
64243;BME280;50573;51.512;5.386;2023-01-28T02:44:36;102685.09;;;3.32;81.87
64243;BME280;50573;51.512;5.386;2023-01-28T02:54:44;102692.72;;;3.30;83.58
64243;BME280;50573;51.512;5.386;2023-01-28T03:04:52;102689.56;;;3.28;84.00
64243;BME280;50573;51.512;5.386;2023-01-28T03:14:59;102699.91;;;3.26;82.09
64243;BME280;50573;51.512;5.386;2023-01-28T03:25:20;102696.66;;;3.20;81.62
64243;BME280;50573;51.512;5.386;2023-01-28T03:35:43;102703.94;;;3.20;80.88
64243;BME280;50573;51.512;5.386;2023-01-28T03:46:04;102710.09;;;3.20;80.80
64243;BME280;50573;51.512;5.386;2023-01-28T03:56:09;102707.09;;;3.22;80.60
64243;BME280;50573;51.512;5.386;2023-01-28T04:06:19;102723.13;;;3.06;83.84
64243;BME280;50573;51.512;5.386;2023-01-28T04:16:52;102729.94;;;3.04;85.76
64243;BME280;50573;51.512;5.386;2023-01-28T04:26:58;102728.31;;;2.91;87.12
64243;BME280;50573;51.512;5.386;2023-01-28T04:37:03;102724.88;;;2.90;87.38
64243;BME280;50573;51.512;5.386;2023-01-28T04:47:18;102723.88;;;2.95;87.17
64243;BME280;50573;51.512;5.386;2023-01-28T04:57:38;102708.69;;;2.78;87.26
64243;BME280;50573;51.512;5.386;2023-01-28T05:07:42;102730.34;;;2.81;87.39
64243;BME280;50573;51.512;5.386;2023-01-28T05:17:46;102733.50;;;2.83;87.23
64243;BME280;50573;51.512;5.386;2023-01-28T05:27:53;102731.00;;;2.78;86.93
64243;BME280;50573;51.512;5.386;2023-01-28T05:37:57;102725.03;;;2.73;87.43
64243;BME280;50573;51.512;5.386;2023-01-28T05:48:00;102718.28;;;2.67;86.97
64243;BME280;50573;51.512;5.386;2023-01-28T05:58:23;102728.00;;;2.59;83.95
64243;BME280;50573;51.512;5.386;2023-01-28T06:08:27;102736.53;;;2.61;81.59
64243;BME280;50573;51.512;5.386;2023-01-28T06:18:33;102739.88;;;2.58;81.56
64243;BME280;50573;51.512;5.386;2023-01-28T06:28:35;102741.34;;;2.56;77.17
64243;BME280;50573;51.512;5.386;2023-01-28T06:38:40;102747.81;;;2.55;77.58
64243;BME280;50573;51.512;5.386;2023-01-28T06:48:42;102751.91;;;2.61;78.09
64243;BME280;50573;51.512;5.386;2023-01-28T06:58:47;102748.63;;;2.55;76.95
64243;BME280;50573;51.512;5.386;2023-01-28T07:08:49;102761.06;;;2.60;77.21
64243;BME280;50573;51.512;5.386;2023-01-28T07:18:54;102758.91;;;2.53;78.04
64243;BME280;50573;51.512;5.386;2023-01-28T07:28:57;102782.22;;;2.49;77.50
64243;BME280;50573;51.512;5.386;2023-01-28T07:39:02;102796.19;;;2.43;75.67
64243;BME280;50573;51.512;5.386;2023-01-28T07:49:05;102792.84;;;2.46;75.53
64243;BME280;50573;51.512;5.386;2023-01-28T07:59:10;102807.53;;;2.48;77.17
64243;BME280;50573;51.512;5.386;2023-01-28T08:09:13;102802.00;;;2.45;76.78
64243;BME280;50573;51.512;5.386;2023-01-28T08:19:19;102821.50;;;2.42;75.18
64243;BME280;50573;51.512;5.386;2023-01-28T08:29:22;102840.75;;;2.52;75.54
64243;BME280;50573;51.512;5.386;2023-01-28T08:39:27;102843.38;;;2.61;74.82
64243;BME280;50573;51.512;5.386;2023-01-28T08:49:30;102850.09;;;2.88;75.00
64243;BME280;50573;51.512;5.386;2023-01-28T08:59:34;102853.41;;;2.93;74.82
64243;BME280;50573;51.512;5.386;2023-01-28T09:09:41;102864.72;;;2.99;75.19
64243;BME280;50573;51.512;5.386;2023-01-28T09:19:45;102871.84;;;3.03;74.37
64243;BME280;50573;51.512;5.386;2023-01-28T09:29:49;102864.41;;;3.00;75.43
64243;BME280;50573;51.512;5.386;2023-01-28T09:39:53;102902.50;;;2.90;74.83
64243;BME280;50573;51.512;5.386;2023-01-28T09:49:58;102892.50;;;2.91;74.87
64243;BME280;50573;51.512;5.386;2023-01-28T10:00:12;102912.94;;;2.92;74.89
64243;BME280;50573;51.512;5.386;2023-01-28T10:10:19;102924.09;;;2.81;75.25
64243;BME280;50573;51.512;5.386;2023-01-28T10:20:27;102929.16;;;2.83;74.01
64243;BME280;50573;51.512;5.386;2023-01-28T10:30:34;102939.91;;;2.83;74.13
64243;BME280;50573;51.512;5.386;2023-01-28T10:40:42;102919.69;;;2.98;73.71
64243;BME280;50573;51.512;5.386;2023-01-28T10:50:50;102915.16;;;2.90;74.17
64243;BME280;50573;51.512;5.386;2023-01-28T11:00:56;102907.41;;;3.09;73.69
64243;BME280;50573;51.512;5.386;2023-01-28T11:11:01;102913.84;;;2.96;73.92
64243;BME280;50573;51.512;5.386;2023-01-28T11:21:14;102905.00;;;3.16;74.83
64243;BME280;50573;51.512;5.386;2023-01-28T11:31:19;102889.69;;;3.08;74.33
64243;BME280;50573;51.512;5.386;2023-01-28T11:41:27;102878.28;;;3.23;72.68
64243;BME280;50573;51.512;5.386;2023-01-28T11:51:37;102841.56;;;3.51;72.72
64243;BME280;50573;51.512;5.386;2023-01-28T12:01:49;102818.28;;;3.34;73.60
64243;BME280;50573;51.512;5.386;2023-01-28T12:12:10;102775.34;;;3.50;73.24
64243;BME280;50573;51.512;5.386;2023-01-28T12:22:29;102769.34;;;3.20;72.69
64243;BME280;50573;51.512;5.386;2023-01-28T12:32:46;102801.59;;;3.41;73.77
64243;BME280;50573;51.512;5.386;2023-01-28T12:42:55;102811.09;;;3.26;73.65
64243;BME280;50573;51.512;5.386;2023-01-28T12:53:10;102835.13;;;3.31;74.15
64243;BME280;50573;51.512;5.386;2023-01-28T13:03:25;102835.09;;;3.76;71.64
64243;BME280;50573;51.512;5.386;2023-01-28T13:13:35;102825.31;;;3.59;71.22
64243;BME280;50573;51.512;5.386;2023-01-28T13:23:42;102814.66;;;3.63;72.14
64243;BME280;50573;51.512;5.386;2023-01-28T13:33:47;102806.69;;;3.78;71.67
64243;BME280;50573;51.512;5.386;2023-01-28T13:43:51;102804.19;;;3.73;70.98
64243;BME280;50573;51.512;5.386;2023-01-28T13:53:58;102770.53;;;3.67;71.63
64243;BME280;50573;51.512;5.386;2023-01-28T14:15:21;102737.41;;;3.55;71.67
64243;BME280;50573;51.512;5.386;2023-01-28T14:25:34;102761.97;;;3.41;72.80
64243;BME280;50573;51.512;5.386;2023-01-28T14:35:45;102789.25;;;3.40;72.55
64243;BME280;50573;51.512;5.386;2023-01-28T14:46:04;102785.63;;;3.24;72.07
64243;BME280;50573;51.512;5.386;2023-01-28T14:56:20;102792.13;;;3.23;73.17
64243;BME280;50573;51.512;5.386;2023-01-28T15:06:29;102786.47;;;3.04;74.73
64243;BME280;50573;51.512;5.386;2023-01-28T15:16:33;102768.53;;;2.75;75.40
64243;BME280;50573;51.512;5.386;2023-01-28T15:26:36;102784.50;;;2.59;77.10
64243;BME280;50573;51.512;5.386;2023-01-28T15:36:41;102797.09;;;2.47;76.22
64243;BME280;50573;51.512;5.386;2023-01-28T15:46:44;102816.56;;;2.23;77.19
64243;BME280;50573;51.512;5.386;2023-01-28T15:56:48;102841.44;;;1.91;77.97
64243;BME280;50573;51.512;5.386;2023-01-28T16:06:52;102848.78;;;1.65;80.19
64243;BME280;50573;51.512;5.386;2023-01-28T16:16:58;102843.03;;;1.37;81.89
64243;BME280;50573;51.512;5.386;2023-01-28T16:27:03;102823.66;;;1.06;82.24
64243;BME280;50573;51.512;5.386;2023-01-28T16:37:09;102811.38;;;0.80;83.21
64243;BME280;50573;51.512;5.386;2023-01-28T16:47:12;102843.72;;;0.66;84.27
64243;BME280;50573;51.512;5.386;2023-01-28T16:57:19;102844.50;;;0.75;85.13
64243;BME280;50573;51.512;5.386;2023-01-28T17:07:23;102827.00;;;0.61;87.12
64243;BME280;50573;51.512;5.386;2023-01-28T17:17:27;102824.44;;;0.47;86.47
64243;BME280;50573;51.512;5.386;2023-01-28T17:27:30;102835.97;;;0.31;86.00
64243;BME280;50573;51.512;5.386;2023-01-28T17:37:35;102849.44;;;0.09;86.54
64243;BME280;50573;51.512;5.386;2023-01-28T17:47:39;102843.91;;;-0.04;87.78
64243;BME280;50573;51.512;5.386;2023-01-28T17:57:44;102826.69;;;-0.20;89.29
64243;BME280;50573;51.512;5.386;2023-01-28T18:07:46;102846.63;;;-0.34;88.73
64243;BME280;50573;51.512;5.386;2023-01-28T18:17:52;102860.41;;;-0.49;89.46
64243;BME280;50573;51.512;5.386;2023-01-28T18:27:56;102874.94;;;-0.64;90.31
64243;BME280;50573;51.512;5.386;2023-01-28T18:38:00;102875.63;;;-0.80;90.96
64243;BME280;50573;51.512;5.386;2023-01-28T18:48:03;102869.84;;;-0.96;91.61
64243;BME280;50573;51.512;5.386;2023-01-28T18:58:08;102878.09;;;-1.06;92.07
64243;BME280;50573;51.512;5.386;2023-01-28T19:08:13;102876.75;;;-1.17;92.45
64243;BME280;50573;51.512;5.386;2023-01-28T19:18:18;102872.19;;;-1.16;96.14
64243;BME280;50573;51.512;5.386;2023-01-28T19:28:21;102882.22;;;-1.22;93.16
64243;BME280;50573;51.512;5.386;2023-01-28T19:38:26;102871.94;;;-1.28;98.52
64243;BME280;50573;51.512;5.386;2023-01-28T19:48:30;102893.53;;;-1.25;95.43
64243;BME280;50573;51.512;5.386;2023-01-28T19:58:36;102895.13;;;-1.02;94.50
64243;BME280;50573;51.512;5.386;2023-01-28T20:08:39;102901.09;;;-0.83;95.08
64243;BME280;50573;51.512;5.386;2023-01-28T20:18:47;102898.06;;;-0.68;97.12
64243;BME280;50573;51.512;5.386;2023-01-28T20:28:50;102883.47;;;-0.62;96.47
64243;BME280;50573;51.512;5.386;2023-01-28T20:38:55;102883.16;;;-0.60;96.04
64243;BME280;50573;51.512;5.386;2023-01-28T20:48:59;102876.09;;;-0.56;96.54
64243;BME280;50573;51.512;5.386;2023-01-28T20:59:11;102864.75;;;-0.62;95.78
64243;BME280;50573;51.512;5.386;2023-01-28T21:09:14;102859.50;;;-0.67;95.61
64243;BME280;50573;51.512;5.386;2023-01-28T21:19:19;102847.00;;;-0.80;96.02
64243;BME280;50573;51.512;5.386;2023-01-28T21:29:22;102858.63;;;-0.84;95.79
64243;BME280;50573;51.512;5.386;2023-01-28T21:39:27;102851.91;;;-0.95;96.52
64243;BME280;50573;51.512;5.386;2023-01-28T21:49:30;102849.75;;;-1.07;95.65
64243;BME280;50573;51.512;5.386;2023-01-28T21:59:34;102862.69;;;-1.09;95.96
64243;BME280;50573;51.512;5.386;2023-01-28T22:09:40;102858.28;;;-1.05;95.87
64243;BME280;50573;51.512;5.386;2023-01-28T22:19:45;102862.38;;;-1.07;97.67
64243;BME280;50573;51.512;5.386;2023-01-28T22:29:49;102851.13;;;-0.96;97.32
64243;BME280;50573;51.512;5.386;2023-01-28T22:39:55;102857.03;;;-1.07;97.59
64243;BME280;50573;51.512;5.386;2023-01-28T22:49:58;102841.47;;;-1.05;96.47
64243;BME280;50573;51.512;5.386;2023-01-28T23:00:08;102851.72;;;-1.21;96.64
64243;BME280;50573;51.512;5.386;2023-01-28T23:10:12;102827.16;;;-1.23;97.82
64243;BME280;50573;51.512;5.386;2023-01-28T23:20:17;102808.31;;;-1.18;97.39
64243;BME280;50573;51.512;5.386;2023-01-28T23:30:38;102800.38;;;-1.31;97.14
64243;BME280;50573;51.512;5.386;2023-01-28T23:40:43;102802.38;;;-1.37;98.29
64243;BME280;50573;51.512;5.386;2023-01-28T23:50:46;102805.06;;;-1.51;98.60
